<?xml version="1.0" encoding="UTF-8" standalone="no" ?>
<gpx xmlns="http://www.topografix.com/GPX/1/1" xmlns:xsi="http://www.w3.org/2001/XMLSchema-instance" xsi:schemaLocation="http://www.topografix.com/GPX/1/1 http://www.topografix.com/GPX/1/1/gpx.xsd" version="1.1" creator="VisuGPX - https://www.visugpx.com">
  <metadata>
    <name>Tour des Monts d\'Aubrac. des Gentianes à Aubrac</name>
    <desc><![CDATA[Bibliothèque Ripatons. Départ de la Ferme des Gentianes par le GR65 (chemin de Compostelle). Traversée de Rieutort . Quitter le GR pour la cascade du Déroc. Rejoindre Nasbinals et le GR65 jusqu\'à Aubrac]]></desc>
  </metadata>
  <trk>
    <name><![CDATA[Des Gentianes à Aubrac]]></name>
    <trkseg>
      <trkpt lat="44.6852" lon="3.14626">
        <ele>1195</ele>
        <time>2015-03-22T18:32:23+01:00</time>
      </trkpt>
      <trkpt lat="44.68576" lon="3.14595">
        <ele>1194</ele>
        <time>2015-03-22T18:32:28+01:00</time>
      </trkpt>
      <trkpt lat="44.68627" lon="3.14535">
        <ele>1191</ele>
        <time>2015-03-22T18:32:33+01:00</time>
      </trkpt>
      <trkpt lat="44.68626" lon="3.14416">
        <ele>1186</ele>
        <time>2015-03-22T18:32:38+01:00</time>
      </trkpt>
      <trkpt lat="44.68636" lon="3.14318">
        <ele>1184</ele>
        <time>2015-03-22T18:32:43+01:00</time>
      </trkpt>
      <trkpt lat="44.68612" lon="3.14185">
        <ele>1187</ele>
        <time>2015-03-22T18:32:48+01:00</time>
      </trkpt>
      <trkpt lat="44.68507" lon="3.14085">
        <ele>1201</ele>
        <time>2015-03-22T18:32:53+01:00</time>
      </trkpt>
      <trkpt lat="44.68454" lon="3.14048">
        <ele>1202</ele>
        <time>2015-03-22T18:32:58+01:00</time>
      </trkpt>
      <trkpt lat="44.68424" lon="3.13945">
        <ele>1206</ele>
        <time>2015-03-22T18:33:03+01:00</time>
      </trkpt>
      <trkpt lat="44.68411" lon="3.13902">
        <ele>1207</ele>
        <time>2015-03-22T18:33:08+01:00</time>
      </trkpt>
      <trkpt lat="44.68436" lon="3.13835">
        <ele>1214</ele>
        <time>2015-03-22T18:33:13+01:00</time>
      </trkpt>
      <trkpt lat="44.68442" lon="3.13793">
        <ele>1216</ele>
        <time>2015-03-22T18:33:18+01:00</time>
      </trkpt>
      <trkpt lat="44.68427" lon="3.13738">
        <ele>1218</ele>
        <time>2015-03-22T18:33:23+01:00</time>
      </trkpt>
      <trkpt lat="44.68396" lon="3.13648">
        <ele>1220</ele>
        <time>2015-03-22T18:33:28+01:00</time>
      </trkpt>
      <trkpt lat="44.68383" lon="3.13544">
        <ele>1220</ele>
        <time>2015-03-22T18:33:33+01:00</time>
      </trkpt>
      <trkpt lat="44.68383" lon="3.13423">
        <ele>1214</ele>
        <time>2015-03-22T18:33:38+01:00</time>
      </trkpt>
      <trkpt lat="44.68386" lon="3.13377">
        <ele>1211</ele>
        <time>2015-03-22T18:33:43+01:00</time>
      </trkpt>
      <trkpt lat="44.68375" lon="3.13302">
        <ele>1207</ele>
        <time>2015-03-22T18:33:48+01:00</time>
      </trkpt>
      <trkpt lat="44.68383" lon="3.13233">
        <ele>1201</ele>
        <time>2015-03-22T18:33:53+01:00</time>
      </trkpt>
      <trkpt lat="44.68331" lon="3.13178">
        <ele>1199</ele>
        <time>2015-03-22T18:33:58+01:00</time>
      </trkpt>
      <trkpt lat="44.68325" lon="3.13087">
        <ele>1199</ele>
        <time>2015-03-22T18:34:03+01:00</time>
      </trkpt>
      <trkpt lat="44.68337" lon="3.13053">
        <ele>1201</ele>
        <time>2015-03-22T18:34:08+01:00</time>
      </trkpt>
      <trkpt lat="44.68329" lon="3.12999">
        <ele>1206</ele>
        <time>2015-03-22T18:34:13+01:00</time>
      </trkpt>
      <trkpt lat="44.68338" lon="3.12942">
        <ele>1211</ele>
        <time>2015-03-22T18:34:18+01:00</time>
      </trkpt>
      <trkpt lat="44.68331" lon="3.12874">
        <ele>1218</ele>
        <time>2015-03-22T18:34:23+01:00</time>
      </trkpt>
      <trkpt lat="44.68286" lon="3.12775">
        <ele>1230</ele>
        <time>2015-03-22T18:34:28+01:00</time>
      </trkpt>
      <trkpt lat="44.68245" lon="3.1263">
        <ele>1243</ele>
        <time>2015-03-22T18:34:33+01:00</time>
      </trkpt>
      <trkpt lat="44.68237" lon="3.12502">
        <ele>1251</ele>
        <time>2015-03-22T18:34:38+01:00</time>
      </trkpt>
      <trkpt lat="44.68188" lon="3.12378">
        <ele>1255</ele>
        <time>2015-03-22T18:34:43+01:00</time>
      </trkpt>
      <trkpt lat="44.68146" lon="3.1236">
        <ele>1254</ele>
        <time>2015-03-22T18:34:48+01:00</time>
      </trkpt>
      <trkpt lat="44.68112" lon="3.12355">
        <ele>1254</ele>
        <time>2015-03-22T18:34:53+01:00</time>
      </trkpt>
      <trkpt lat="44.68039" lon="3.1227">
        <ele>1249</ele>
        <time>2015-03-22T18:34:58+01:00</time>
      </trkpt>
      <trkpt lat="44.68012" lon="3.12215">
        <ele>1246</ele>
        <time>2015-03-22T18:35:03+01:00</time>
      </trkpt>
      <trkpt lat="44.67995" lon="3.12184">
        <ele>1243</ele>
        <time>2015-03-22T18:35:08+01:00</time>
      </trkpt>
      <trkpt lat="44.67987" lon="3.1207">
        <ele>1234</ele>
        <time>2015-03-22T18:35:13+01:00</time>
      </trkpt>
      <trkpt lat="44.68052" lon="3.1201">
        <ele>1230</ele>
        <time>2015-03-22T18:35:18+01:00</time>
      </trkpt>
      <trkpt lat="44.68029" lon="3.11959">
        <ele>1229</ele>
        <time>2015-03-22T18:35:23+01:00</time>
      </trkpt>
      <trkpt lat="44.67913" lon="3.11849">
        <ele>1223</ele>
        <time>2015-03-22T18:35:28+01:00</time>
      </trkpt>
      <trkpt lat="44.67877" lon="3.11816">
        <ele>1218</ele>
        <time>2015-03-22T18:35:33+01:00</time>
      </trkpt>
      <trkpt lat="44.67827" lon="3.11686">
        <ele>1206</ele>
        <time>2015-03-22T18:35:38+01:00</time>
      </trkpt>
      <trkpt lat="44.67851" lon="3.11536">
        <ele>1199</ele>
        <time>2015-03-22T18:35:43+01:00</time>
      </trkpt>
      <trkpt lat="44.67823" lon="3.11421">
        <ele>1192</ele>
        <time>2015-03-22T18:35:48+01:00</time>
      </trkpt>
      <trkpt lat="44.67788" lon="3.1126">
        <ele>1184</ele>
        <time>2015-03-22T18:35:53+01:00</time>
      </trkpt>
      <trkpt lat="44.67777" lon="3.11165">
        <ele>1182</ele>
        <time>2015-03-22T18:35:58+01:00</time>
      </trkpt>
      <trkpt lat="44.67773" lon="3.11116">
        <ele>1182</ele>
        <time>2015-03-22T18:36:03+01:00</time>
      </trkpt>
      <trkpt lat="44.67738" lon="3.11037">
        <ele>1182</ele>
        <time>2015-03-22T18:36:08+01:00</time>
      </trkpt>
      <trkpt lat="44.67736" lon="3.11017">
        <ele>1182</ele>
        <time>2015-03-22T18:36:13+01:00</time>
      </trkpt>
      <trkpt lat="44.67596" lon="3.1096">
        <ele>1186</ele>
        <time>2015-03-22T18:36:18+01:00</time>
      </trkpt>
      <trkpt lat="44.67529" lon="3.10948">
        <ele>1189</ele>
        <time>2015-03-22T18:36:23+01:00</time>
      </trkpt>
      <trkpt lat="44.67443" lon="3.10886">
        <ele>1194</ele>
        <time>2015-03-22T18:36:28+01:00</time>
      </trkpt>
      <trkpt lat="44.67138" lon="3.10609">
        <ele>1193</ele>
        <time>2015-03-22T18:36:33+01:00</time>
      </trkpt>
      <trkpt lat="44.67083" lon="3.10531">
        <ele>1194</ele>
        <time>2015-03-22T18:36:38+01:00</time>
      </trkpt>
      <trkpt lat="44.66998" lon="3.10437">
        <ele>1195</ele>
        <time>2015-03-22T18:36:43+01:00</time>
      </trkpt>
      <trkpt lat="44.66878" lon="3.10407">
        <ele>1188</ele>
        <time>2015-03-22T18:36:48+01:00</time>
      </trkpt>
      <trkpt lat="44.66865" lon="3.10373">
        <ele>1186</ele>
        <time>2015-03-22T18:36:53+01:00</time>
      </trkpt>
      <trkpt lat="44.66853" lon="3.10232">
        <ele>1183</ele>
        <time>2015-03-22T18:36:58+01:00</time>
      </trkpt>
      <trkpt lat="44.66849" lon="3.10135">
        <ele>1181</ele>
        <time>2015-03-22T18:37:03+01:00</time>
      </trkpt>
      <trkpt lat="44.66813" lon="3.10081">
        <ele>1176</ele>
        <time>2015-03-22T18:37:08+01:00</time>
      </trkpt>
      <trkpt lat="44.66751" lon="3.10059">
        <ele>1170</ele>
        <time>2015-03-22T18:37:13+01:00</time>
      </trkpt>
      <trkpt lat="44.6669" lon="3.10061">
        <ele>1167</ele>
        <time>2015-03-22T18:37:18+01:00</time>
      </trkpt>
      <trkpt lat="44.66635" lon="3.10041">
        <ele>1163</ele>
        <time>2015-03-22T18:37:23+01:00</time>
      </trkpt>
      <trkpt lat="44.66577" lon="3.10002">
        <ele>1158</ele>
        <time>2015-03-22T18:37:28+01:00</time>
      </trkpt>
      <trkpt lat="44.66457" lon="3.09897">
        <ele>1154</ele>
        <time>2015-03-22T18:37:33+01:00</time>
      </trkpt>
      <trkpt lat="44.66378" lon="3.09798">
        <ele>1153</ele>
        <time>2015-03-22T18:37:38+01:00</time>
      </trkpt>
      <trkpt lat="44.6629" lon="3.09643">
        <ele>1154</ele>
        <time>2015-03-22T18:37:43+01:00</time>
      </trkpt>
      <trkpt lat="44.66134" lon="3.09448">
        <ele>1155</ele>
        <time>2015-03-22T18:37:48+01:00</time>
      </trkpt>
      <trkpt lat="44.66018" lon="3.09354">
        <ele>1154</ele>
        <time>2015-03-22T18:37:53+01:00</time>
      </trkpt>
      <trkpt lat="44.65811" lon="3.09203">
        <ele>1153</ele>
        <time>2015-03-22T18:37:58+01:00</time>
      </trkpt>
      <trkpt lat="44.65705" lon="3.09133">
        <ele>1154</ele>
        <time>2015-03-22T18:38:03+01:00</time>
      </trkpt>
      <trkpt lat="44.65626" lon="3.09077">
        <ele>1153</ele>
        <time>2015-03-22T18:38:08+01:00</time>
      </trkpt>
      <trkpt lat="44.65555" lon="3.09069">
        <ele>1154</ele>
        <time>2015-03-22T18:38:13+01:00</time>
      </trkpt>
      <trkpt lat="44.65506" lon="3.09038">
        <ele>1154</ele>
        <time>2015-03-22T18:38:18+01:00</time>
      </trkpt>
      <trkpt lat="44.65515" lon="3.09">
        <ele>1152</ele>
        <time>2015-03-22T18:38:23+01:00</time>
      </trkpt>
      <trkpt lat="44.65516" lon="3.08928">
        <ele>1151</ele>
        <time>2015-03-22T18:38:28+01:00</time>
      </trkpt>
      <trkpt lat="44.6549" lon="3.08872">
        <ele>1153</ele>
        <time>2015-03-22T18:38:33+01:00</time>
      </trkpt>
      <trkpt lat="44.65427" lon="3.08799">
        <ele>1153</ele>
        <time>2015-03-22T18:38:38+01:00</time>
      </trkpt>
      <trkpt lat="44.65369" lon="3.08718">
        <ele>1155</ele>
        <time>2015-03-22T18:38:43+01:00</time>
      </trkpt>
      <trkpt lat="44.65269" lon="3.08657">
        <ele>1156</ele>
        <time>2015-03-22T18:38:48+01:00</time>
      </trkpt>
      <trkpt lat="44.65115" lon="3.08482">
        <ele>1156</ele>
        <time>2015-03-22T18:38:53+01:00</time>
      </trkpt>
      <trkpt lat="44.65097" lon="3.0843">
        <ele>1155</ele>
        <time>2015-03-22T18:38:58+01:00</time>
      </trkpt>
      <trkpt lat="44.6507" lon="3.08272">
        <ele>1155</ele>
        <time>2015-03-22T18:39:03+01:00</time>
      </trkpt>
      <trkpt lat="44.65" lon="3.08151">
        <ele>1156</ele>
        <time>2015-03-22T18:39:08+01:00</time>
      </trkpt>
      <trkpt lat="44.65032" lon="3.08049">
        <ele>1157</ele>
        <time>2015-03-22T18:39:13+01:00</time>
      </trkpt>
      <trkpt lat="44.65015" lon="3.07997">
        <ele>1157</ele>
        <time>2015-03-22T18:39:18+01:00</time>
      </trkpt>
      <trkpt lat="44.64969" lon="3.07714">
        <ele>1161</ele>
        <time>2015-03-22T18:39:23+01:00</time>
      </trkpt>
      <trkpt lat="44.64923" lon="3.07566">
        <ele>1161</ele>
        <time>2015-03-22T18:39:28+01:00</time>
      </trkpt>
      <trkpt lat="44.64795" lon="3.07288">
        <ele>1178</ele>
        <time>2015-03-22T18:39:33+01:00</time>
      </trkpt>
      <trkpt lat="44.64794" lon="3.07249">
        <ele>1181</ele>
        <time>2015-03-22T18:39:38+01:00</time>
      </trkpt>
      <trkpt lat="44.64827" lon="3.07225">
        <ele>1185</ele>
        <time>2015-03-22T18:39:43+01:00</time>
      </trkpt>
      <trkpt lat="44.6488" lon="3.07175">
        <ele>1188</ele>
        <time>2015-03-22T18:39:48+01:00</time>
      </trkpt>
      <trkpt lat="44.64899" lon="3.07119">
        <ele>1191</ele>
        <time>2015-03-22T18:39:53+01:00</time>
      </trkpt>
      <trkpt lat="44.64836" lon="3.07124">
        <ele>1199</ele>
        <time>2015-03-22T18:39:58+01:00</time>
      </trkpt>
      <trkpt lat="44.64681" lon="3.07049">
        <ele>1206</ele>
        <time>2015-03-22T18:40:03+01:00</time>
      </trkpt>
      <trkpt lat="44.64659" lon="3.07068">
        <ele>1204</ele>
        <time>2015-03-22T18:40:08+01:00</time>
      </trkpt>
      <trkpt lat="44.64654" lon="3.07122">
        <ele>1197</ele>
        <time>2015-03-22T18:40:13+01:00</time>
      </trkpt>
      <trkpt lat="44.64643" lon="3.07142">
        <ele>1193</ele>
        <time>2015-03-22T18:40:18+01:00</time>
      </trkpt>
      <trkpt lat="44.64612" lon="3.07127">
        <ele>1192</ele>
        <time>2015-03-22T18:40:23+01:00</time>
      </trkpt>
      <trkpt lat="44.64599" lon="3.07072">
        <ele>1198</ele>
        <time>2015-03-22T18:40:28+01:00</time>
      </trkpt>
      <trkpt lat="44.646" lon="3.07049">
        <ele>1201</ele>
        <time>2015-03-22T18:40:33+01:00</time>
      </trkpt>
      <trkpt lat="44.64612" lon="3.07121">
        <ele>1193</ele>
        <time>2015-03-22T18:40:38+01:00</time>
      </trkpt>
      <trkpt lat="44.64647" lon="3.0714">
        <ele>1193</ele>
        <time>2015-03-22T18:40:43+01:00</time>
      </trkpt>
      <trkpt lat="44.64656" lon="3.07116">
        <ele>1198</ele>
        <time>2015-03-22T18:40:48+01:00</time>
      </trkpt>
      <trkpt lat="44.64655" lon="3.07075">
        <ele>1203</ele>
        <time>2015-03-22T18:40:53+01:00</time>
      </trkpt>
      <trkpt lat="44.64677" lon="3.07049">
        <ele>1206</ele>
        <time>2015-03-22T18:40:58+01:00</time>
      </trkpt>
      <trkpt lat="44.6462" lon="3.06942">
        <ele>1211</ele>
        <time>2015-03-22T18:41:03+01:00</time>
      </trkpt>
      <trkpt lat="44.64681" lon="3.06765">
        <ele>1217</ele>
        <time>2015-03-22T18:41:08+01:00</time>
      </trkpt>
      <trkpt lat="44.64779" lon="3.06567">
        <ele>1218</ele>
        <time>2015-03-22T18:41:13+01:00</time>
      </trkpt>
      <trkpt lat="44.64823" lon="3.06476">
        <ele>1221</ele>
        <time>2015-03-22T18:41:18+01:00</time>
      </trkpt>
      <trkpt lat="44.64829" lon="3.06407">
        <ele>1223</ele>
        <time>2015-03-22T18:41:23+01:00</time>
      </trkpt>
      <trkpt lat="44.6487" lon="3.06293">
        <ele>1220</ele>
        <time>2015-03-22T18:41:28+01:00</time>
      </trkpt>
      <trkpt lat="44.64898" lon="3.06097">
        <ele>1222</ele>
        <time>2015-03-22T18:41:33+01:00</time>
      </trkpt>
      <trkpt lat="44.64939" lon="3.06055">
        <ele>1222</ele>
        <time>2015-03-22T18:41:38+01:00</time>
      </trkpt>
      <trkpt lat="44.64944" lon="3.05995">
        <ele>1221</ele>
        <time>2015-03-22T18:41:43+01:00</time>
      </trkpt>
      <trkpt lat="44.64982" lon="3.05921">
        <ele>1219</ele>
        <time>2015-03-22T18:41:48+01:00</time>
      </trkpt>
      <trkpt lat="44.65126" lon="3.05877">
        <ele>1212</ele>
        <time>2015-03-22T18:41:53+01:00</time>
      </trkpt>
      <trkpt lat="44.65124" lon="3.05823">
        <ele>1209</ele>
        <time>2015-03-22T18:41:58+01:00</time>
      </trkpt>
      <trkpt lat="44.65208" lon="3.05793">
        <ele>1208</ele>
        <time>2015-03-22T18:42:03+01:00</time>
      </trkpt>
      <trkpt lat="44.65231" lon="3.05757">
        <ele>1209</ele>
        <time>2015-03-22T18:42:08+01:00</time>
      </trkpt>
      <trkpt lat="44.65162" lon="3.05657">
        <ele>1208</ele>
        <time>2015-03-22T18:42:13+01:00</time>
      </trkpt>
      <trkpt lat="44.65157" lon="3.05602">
        <ele>1208</ele>
        <time>2015-03-22T18:42:18+01:00</time>
      </trkpt>
      <trkpt lat="44.65188" lon="3.05535">
        <ele>1208</ele>
        <time>2015-03-22T18:42:23+01:00</time>
      </trkpt>
      <trkpt lat="44.65186" lon="3.05492">
        <ele>1207</ele>
        <time>2015-03-22T18:42:28+01:00</time>
      </trkpt>
      <trkpt lat="44.65156" lon="3.05435">
        <ele>1206</ele>
        <time>2015-03-22T18:42:33+01:00</time>
      </trkpt>
      <trkpt lat="44.65156" lon="3.05409">
        <ele>1206</ele>
        <time>2015-03-22T18:42:38+01:00</time>
      </trkpt>
      <trkpt lat="44.65223" lon="3.05385">
        <ele>1206</ele>
        <time>2015-03-22T18:42:43+01:00</time>
      </trkpt>
      <trkpt lat="44.65271" lon="3.05343">
        <ele>1204</ele>
        <time>2015-03-22T18:42:48+01:00</time>
      </trkpt>
      <trkpt lat="44.65327" lon="3.05245">
        <ele>1200</ele>
        <time>2015-03-22T18:42:53+01:00</time>
      </trkpt>
      <trkpt lat="44.65346" lon="3.05171">
        <ele>1202</ele>
        <time>2015-03-22T18:42:58+01:00</time>
      </trkpt>
      <trkpt lat="44.65402" lon="3.05158">
        <ele>1204</ele>
        <time>2015-03-22T18:43:03+01:00</time>
      </trkpt>
      <trkpt lat="44.65487" lon="3.05145">
        <ele>1203</ele>
        <time>2015-03-22T18:43:08+01:00</time>
      </trkpt>
      <trkpt lat="44.65572" lon="3.05186">
        <ele>1197</ele>
        <time>2015-03-22T18:43:13+01:00</time>
      </trkpt>
      <trkpt lat="44.65609" lon="3.05189">
        <ele>1196</ele>
        <time>2015-03-22T18:43:18+01:00</time>
      </trkpt>
      <trkpt lat="44.65677" lon="3.05198">
        <ele>1195</ele>
        <time>2015-03-22T18:43:23+01:00</time>
      </trkpt>
      <trkpt lat="44.65769" lon="3.0518">
        <ele>1193</ele>
        <time>2015-03-22T18:43:28+01:00</time>
      </trkpt>
      <trkpt lat="44.6589" lon="3.05134">
        <ele>1190</ele>
        <time>2015-03-22T18:43:33+01:00</time>
      </trkpt>
      <trkpt lat="44.65929" lon="3.0515">
        <ele>1188</ele>
        <time>2015-03-22T18:43:38+01:00</time>
      </trkpt>
      <trkpt lat="44.66003" lon="3.05121">
        <ele>1186</ele>
        <time>2015-03-22T18:43:43+01:00</time>
      </trkpt>
      <trkpt lat="44.66045" lon="3.05072">
        <ele>1183</ele>
        <time>2015-03-22T18:43:48+01:00</time>
      </trkpt>
      <trkpt lat="44.66033" lon="3.05043">
        <ele>1186</ele>
        <time>2015-03-22T18:43:53+01:00</time>
      </trkpt>
      <trkpt lat="44.66132" lon="3.04938">
        <ele>1182</ele>
        <time>2015-03-22T18:43:58+01:00</time>
      </trkpt>
      <trkpt lat="44.66162" lon="3.04879">
        <ele>1178</ele>
        <time>2015-03-22T18:44:03+01:00</time>
      </trkpt>
      <trkpt lat="44.6617" lon="3.04854">
        <ele>1177</ele>
        <time>2015-03-22T18:44:08+01:00</time>
      </trkpt>
      <trkpt lat="44.66181" lon="3.04807">
        <ele>1176</ele>
        <time>2015-03-22T18:44:13+01:00</time>
      </trkpt>
      <trkpt lat="44.66187" lon="3.04753">
        <ele>1175</ele>
        <time>2015-03-22T18:44:18+01:00</time>
      </trkpt>
      <trkpt lat="44.66201" lon="3.04689">
        <ele>1176</ele>
        <time>2015-03-22T18:44:23+01:00</time>
      </trkpt>
      <trkpt lat="44.66218" lon="3.04661">
        <ele>1177</ele>
        <time>2015-03-22T18:44:28+01:00</time>
      </trkpt>
      <trkpt lat="44.66235" lon="3.04675">
        <ele>1178</ele>
        <time>2015-03-22T18:44:33+01:00</time>
      </trkpt>
      <trkpt lat="44.66251" lon="3.04677">
        <ele>1179</ele>
        <time>2015-03-22T18:44:38+01:00</time>
      </trkpt>
      <trkpt lat="44.66262" lon="3.04657">
        <ele>1181</ele>
        <time>2015-03-22T18:44:43+01:00</time>
      </trkpt>
      <trkpt lat="44.66265" lon="3.04557">
        <ele>1183</ele>
        <time>2015-03-22T18:44:48+01:00</time>
      </trkpt>
      <trkpt lat="44.66265" lon="3.04478">
        <ele>1181</ele>
        <time>2015-03-22T18:44:53+01:00</time>
      </trkpt>
      <trkpt lat="44.66261" lon="3.04386">
        <ele>1181</ele>
        <time>2015-03-22T18:44:58+01:00</time>
      </trkpt>
      <trkpt lat="44.6625" lon="3.04347">
        <ele>1182</ele>
        <time>2015-03-22T18:45:03+01:00</time>
      </trkpt>
      <trkpt lat="44.66168" lon="3.04204">
        <ele>1182</ele>
        <time>2015-03-22T18:45:08+01:00</time>
      </trkpt>
      <trkpt lat="44.66044" lon="3.04031">
        <ele>1183</ele>
        <time>2015-03-22T18:45:13+01:00</time>
      </trkpt>
      <trkpt lat="44.66024" lon="3.03998">
        <ele>1186</ele>
        <time>2015-03-22T18:45:18+01:00</time>
      </trkpt>
      <trkpt lat="44.66058" lon="3.03905">
        <ele>1198</ele>
        <time>2015-03-22T18:45:23+01:00</time>
      </trkpt>
      <trkpt lat="44.66135" lon="3.03825">
        <ele>1203</ele>
        <time>2015-03-22T18:45:28+01:00</time>
      </trkpt>
      <trkpt lat="44.66107" lon="3.03776">
        <ele>1207</ele>
        <time>2015-03-22T18:45:33+01:00</time>
      </trkpt>
      <trkpt lat="44.66083" lon="3.03708">
        <ele>1210</ele>
        <time>2015-03-22T18:45:38+01:00</time>
      </trkpt>
      <trkpt lat="44.65944" lon="3.0366">
        <ele>1211</ele>
        <time>2015-03-22T18:45:43+01:00</time>
      </trkpt>
      <trkpt lat="44.65911" lon="3.03551">
        <ele>1214</ele>
        <time>2015-03-22T18:45:48+01:00</time>
      </trkpt>
      <trkpt lat="44.65879" lon="3.03474">
        <ele>1215</ele>
        <time>2015-03-22T18:45:53+01:00</time>
      </trkpt>
      <trkpt lat="44.6582" lon="3.03274">
        <ele>1216</ele>
        <time>2015-03-22T18:45:58+01:00</time>
      </trkpt>
      <trkpt lat="44.65816" lon="3.03193">
        <ele>1215</ele>
        <time>2015-03-22T18:46:03+01:00</time>
      </trkpt>
      <trkpt lat="44.65823" lon="3.0314">
        <ele>1214</ele>
        <time>2015-03-22T18:46:08+01:00</time>
      </trkpt>
      <trkpt lat="44.65821" lon="3.03074">
        <ele>1213</ele>
        <time>2015-03-22T18:46:13+01:00</time>
      </trkpt>
      <trkpt lat="44.65798" lon="3.02941">
        <ele>1209</ele>
        <time>2015-03-22T18:46:18+01:00</time>
      </trkpt>
      <trkpt lat="44.65719" lon="3.02825">
        <ele>1211</ele>
        <time>2015-03-22T18:46:23+01:00</time>
      </trkpt>
      <trkpt lat="44.65716" lon="3.02784">
        <ele>1213</ele>
        <time>2015-03-22T18:46:28+01:00</time>
      </trkpt>
      <trkpt lat="44.65705" lon="3.02739">
        <ele>1215</ele>
        <time>2015-03-22T18:46:33+01:00</time>
      </trkpt>
      <trkpt lat="44.65693" lon="3.02647">
        <ele>1222</ele>
        <time>2015-03-22T18:46:38+01:00</time>
      </trkpt>
      <trkpt lat="44.65672" lon="3.02621">
        <ele>1224</ele>
        <time>2015-03-22T18:46:43+01:00</time>
      </trkpt>
      <trkpt lat="44.65642" lon="3.02551">
        <ele>1228</ele>
        <time>2015-03-22T18:46:48+01:00</time>
      </trkpt>
      <trkpt lat="44.65617" lon="3.02514">
        <ele>1230</ele>
        <time>2015-03-22T18:46:53+01:00</time>
      </trkpt>
      <trkpt lat="44.65608" lon="3.02398">
        <ele>1238</ele>
        <time>2015-03-22T18:46:58+01:00</time>
      </trkpt>
      <trkpt lat="44.65577" lon="3.02339">
        <ele>1241</ele>
        <time>2015-03-22T18:47:03+01:00</time>
      </trkpt>
      <trkpt lat="44.65571" lon="3.02223">
        <ele>1244</ele>
        <time>2015-03-22T18:47:08+01:00</time>
      </trkpt>
      <trkpt lat="44.65561" lon="3.02174">
        <ele>1245</ele>
        <time>2015-03-22T18:47:13+01:00</time>
      </trkpt>
      <trkpt lat="44.65562" lon="3.02136">
        <ele>1245</ele>
        <time>2015-03-22T18:47:18+01:00</time>
      </trkpt>
      <trkpt lat="44.65588" lon="3.02047">
        <ele>1239</ele>
        <time>2015-03-22T18:47:23+01:00</time>
      </trkpt>
      <trkpt lat="44.65592" lon="3.02021">
        <ele>1238</ele>
        <time>2015-03-22T18:47:28+01:00</time>
      </trkpt>
      <trkpt lat="44.65545" lon="3.01843">
        <ele>1233</ele>
        <time>2015-03-22T18:47:33+01:00</time>
      </trkpt>
      <trkpt lat="44.65534" lon="3.01761">
        <ele>1230</ele>
        <time>2015-03-22T18:47:38+01:00</time>
      </trkpt>
      <trkpt lat="44.65531" lon="3.01651">
        <ele>1222</ele>
        <time>2015-03-22T18:47:43+01:00</time>
      </trkpt>
      <trkpt lat="44.65474" lon="3.01556">
        <ele>1223</ele>
        <time>2015-03-22T18:47:48+01:00</time>
      </trkpt>
      <trkpt lat="44.65454" lon="3.01477">
        <ele>1218</ele>
        <time>2015-03-22T18:47:53+01:00</time>
      </trkpt>
      <trkpt lat="44.65483" lon="3.01387">
        <ele>1215</ele>
        <time>2015-03-22T18:47:58+01:00</time>
      </trkpt>
      <trkpt lat="44.6543" lon="3.01202">
        <ele>1229</ele>
        <time>2015-03-22T18:48:03+01:00</time>
      </trkpt>
      <trkpt lat="44.65385" lon="3.01121">
        <ele>1232</ele>
        <time>2015-03-22T18:48:08+01:00</time>
      </trkpt>
      <trkpt lat="44.65373" lon="3.01057">
        <ele>1237</ele>
        <time>2015-03-22T18:48:13+01:00</time>
      </trkpt>
      <trkpt lat="44.65375" lon="3.01053">
        <ele>1237</ele>
        <time>2015-03-22T18:48:18+01:00</time>
      </trkpt>
      <trkpt lat="44.65382" lon="3.00994">
        <ele>1242</ele>
        <time>2015-03-22T18:48:23+01:00</time>
      </trkpt>
      <trkpt lat="44.65394" lon="3.00924">
        <ele>1250</ele>
        <time>2015-03-22T18:48:28+01:00</time>
      </trkpt>
      <trkpt lat="44.65396" lon="3.00889">
        <ele>1254</ele>
        <time>2015-03-22T18:48:33+01:00</time>
      </trkpt>
      <trkpt lat="44.65407" lon="3.00857">
        <ele>1258</ele>
        <time>2015-03-22T18:48:38+01:00</time>
      </trkpt>
      <trkpt lat="44.65395" lon="3.00774">
        <ele>1265</ele>
        <time>2015-03-22T18:48:43+01:00</time>
      </trkpt>
      <trkpt lat="44.65399" lon="3.00736">
        <ele>1269</ele>
        <time>2015-03-22T18:48:48+01:00</time>
      </trkpt>
      <trkpt lat="44.65345" lon="3.00639">
        <ele>1271</ele>
        <time>2015-03-22T18:48:53+01:00</time>
      </trkpt>
      <trkpt lat="44.65294" lon="3.0059">
        <ele>1272</ele>
        <time>2015-03-22T18:48:58+01:00</time>
      </trkpt>
      <trkpt lat="44.65206" lon="3.00584">
        <ele>1275</ele>
        <time>2015-03-22T18:49:03+01:00</time>
      </trkpt>
      <trkpt lat="44.65142" lon="3.00567">
        <ele>1279</ele>
        <time>2015-03-22T18:49:08+01:00</time>
      </trkpt>
      <trkpt lat="44.65091" lon="3.00571">
        <ele>1282</ele>
        <time>2015-03-22T18:49:13+01:00</time>
      </trkpt>
      <trkpt lat="44.64995" lon="3.00573">
        <ele>1286</ele>
        <time>2015-03-22T18:49:18+01:00</time>
      </trkpt>
      <trkpt lat="44.64929" lon="3.0044">
        <ele>1292</ele>
        <time>2015-03-22T18:49:23+01:00</time>
      </trkpt>
      <trkpt lat="44.64886" lon="3.00249">
        <ele>1294</ele>
        <time>2015-03-22T18:49:28+01:00</time>
      </trkpt>
      <trkpt lat="44.64839" lon="3.0002">
        <ele>1291</ele>
        <time>2015-03-22T18:49:33+01:00</time>
      </trkpt>
      <trkpt lat="44.64843" lon="2.99881">
        <ele>1293</ele>
        <time>2015-03-22T18:49:38+01:00</time>
      </trkpt>
      <trkpt lat="44.64823" lon="2.99823">
        <ele>1292</ele>
        <time>2015-03-22T18:49:43+01:00</time>
      </trkpt>
      <trkpt lat="44.64842" lon="2.99545">
        <ele>1300</ele>
        <time>2015-03-22T18:49:48+01:00</time>
      </trkpt>
      <trkpt lat="44.64828" lon="2.99317">
        <ele>1304</ele>
        <time>2015-03-22T18:49:53+01:00</time>
      </trkpt>
      <trkpt lat="44.64811" lon="2.99256">
        <ele>1304</ele>
        <time>2015-03-22T18:49:58+01:00</time>
      </trkpt>
      <trkpt lat="44.64811" lon="2.99205">
        <ele>1306</ele>
        <time>2015-03-22T18:50:03+01:00</time>
      </trkpt>
      <trkpt lat="44.64744" lon="2.99029">
        <ele>1309</ele>
        <time>2015-03-22T18:50:08+01:00</time>
      </trkpt>
      <trkpt lat="44.64625" lon="2.98944">
        <ele>1307</ele>
        <time>2015-03-22T18:50:13+01:00</time>
      </trkpt>
      <trkpt lat="44.6445" lon="2.98762">
        <ele>1313</ele>
        <time>2015-03-22T18:50:18+01:00</time>
      </trkpt>
      <trkpt lat="44.64435" lon="2.9872">
        <ele>1314</ele>
        <time>2015-03-22T18:50:23+01:00</time>
      </trkpt>
      <trkpt lat="44.64415" lon="2.98644">
        <ele>1314</ele>
        <time>2015-03-22T18:50:28+01:00</time>
      </trkpt>
      <trkpt lat="44.64404" lon="2.98634">
        <ele>1314</ele>
        <time>2015-03-22T18:50:33+01:00</time>
      </trkpt>
      <trkpt lat="44.64296" lon="2.98685">
        <ele>1312</ele>
        <time>2015-03-22T18:50:38+01:00</time>
      </trkpt>
      <trkpt lat="44.64188" lon="2.9874">
        <ele>1306</ele>
        <time>2015-03-22T18:50:43+01:00</time>
      </trkpt>
      <trkpt lat="44.64139" lon="2.98758">
        <ele>1306</ele>
        <time>2015-03-22T18:50:48+01:00</time>
      </trkpt>
      <trkpt lat="44.64089" lon="2.98806">
        <ele>1307</ele>
        <time>2015-03-22T18:50:53+01:00</time>
      </trkpt>
      <trkpt lat="44.63725" lon="2.99115">
        <ele>1347</ele>
        <time>2015-03-22T18:50:58+01:00</time>
      </trkpt>
      <trkpt lat="44.63497" lon="2.99373">
        <ele>1363</ele>
        <time>2015-03-22T18:51:03+01:00</time>
      </trkpt>
      <trkpt lat="44.63359" lon="2.99432">
        <ele>1367</ele>
        <time>2015-03-22T18:51:08+01:00</time>
      </trkpt>
      <trkpt lat="44.63281" lon="2.99365">
        <ele>1365</ele>
        <time>2015-03-22T18:51:13+01:00</time>
      </trkpt>
      <trkpt lat="44.63251" lon="2.99354">
        <ele>1363</ele>
        <time>2015-03-22T18:51:18+01:00</time>
      </trkpt>
      <trkpt lat="44.63059" lon="2.99188">
        <ele>1359</ele>
        <time>2015-03-22T18:51:23+01:00</time>
      </trkpt>
      <trkpt lat="44.63002" lon="2.99056">
        <ele>1355</ele>
        <time>2015-03-22T18:51:28+01:00</time>
      </trkpt>
      <trkpt lat="44.62939" lon="2.98967">
        <ele>1350</ele>
        <time>2015-03-22T18:51:33+01:00</time>
      </trkpt>
      <trkpt lat="44.62853" lon="2.98882">
        <ele>1345</ele>
        <time>2015-03-22T18:51:38+01:00</time>
      </trkpt>
      <trkpt lat="44.62698" lon="2.98785">
        <ele>1328</ele>
        <time>2015-03-22T18:51:43+01:00</time>
      </trkpt>
      <trkpt lat="44.6261" lon="2.98771">
        <ele>1315</ele>
        <time>2015-03-22T18:51:48+01:00</time>
      </trkpt>
      <trkpt lat="44.62603" lon="2.98754">
        <ele>1315</ele>
        <time>2015-03-22T18:51:53+01:00</time>
      </trkpt>
      <trkpt lat="44.6248" lon="2.98734">
        <ele>1305</ele>
        <time>2015-03-22T18:51:58+01:00</time>
      </trkpt>
      <trkpt lat="44.62357" lon="2.98702">
        <ele>1309</ele>
        <time>2015-03-22T18:52:03+01:00</time>
      </trkpt>
      <trkpt lat="44.62308" lon="2.98749">
        <ele>1301</ele>
        <time>2015-03-22T18:52:08+01:00</time>
      </trkpt>
      <trkpt lat="44.62259" lon="2.9869">
        <ele>1308</ele>
        <time>2015-03-22T18:52:13+01:00</time>
      </trkpt>
      <trkpt lat="44.62222" lon="2.98683">
        <ele>1309</ele>
        <time>2015-03-22T18:52:18+01:00</time>
      </trkpt>
      <trkpt lat="44.62191" lon="2.98637">
        <ele>1312</ele>
        <time>2015-03-22T18:52:23+01:00</time>
      </trkpt>
      <trkpt lat="44.62153" lon="2.98701">
        <ele>1306</ele>
        <time>2015-03-22T18:52:28+01:00</time>
      </trkpt>
    </trkseg>
  </trk>
</gpx>